Time;durP1;ratioP1;P1;durP2;ratioP2;P2;SDS_P1;SDS_P2;PMS_P1;PMS_P2;Temp;Humidity;BMP_temperature;BMP_pressure;BME280_temperature;BME280_humidity;BME280_pressure;Samples;Min_cycle;Max_cycle;Signal;HPM_P1;HPM_P2
2021/03/19 00:00:24;;;;;;;84.07;45.37;;;2.30;99.90;;;;;;5035101;28;20048;-74
2021/03/19 00:02:52;;;;;;;95.73;50.53;;;2.30;99.90;;;;;;5035076;28;20029;-74
2021/03/19 00:05:19;;;;;;;92.43;49.13;;;2.20;99.90;;;;;;5035044;28;20512;-74
2021/03/19 00:07:51;;;;;;;94.47;48.07;;;2.20;99.90;;;;;;5034999;28;20052;-74
2021/03/19 00:10:26;;;;;;;84.43;44.40;;;2.20;99.90;;;;;;5035005;28;20055;-73
2021/03/19 00:12:53;;;;;;;81.47;44.73;;;2.20;99.90;;;;;;5034961;28;20074;-74
2021/03/19 00:15:25;;;;;;;106.50;53.33;;;2.20;99.90;;;;;;5052899;28;20033;-75
2021/03/19 00:17:51;;;;;;;;;;;2.10;99.90;;;;;;5053311;28;20477;-74
2021/03/19 00:20:17;;;;;;;95.90;45.40;;;2.10;99.90;;;;;;5053104;28;19905;-75
2021/03/19 00:22:44;;;;;;;65.47;35.73;;;2.10;99.90;;;;;;5034902;28;20375;-75
2021/03/19 00:25:10;;;;;;;72.70;37.07;;;2.10;99.90;;;;;;5034863;28;20041;-75
2021/03/19 00:27:37;;;;;;;81.90;41.43;;;2.00;99.90;;;;;;5034594;28;20063;-75
2021/03/19 00:30:06;;;;;;;85.47;42.97;;;2.00;99.90;;;;;;5034874;28;20036;-75
2021/03/19 00:32:32;;;;;;;77.57;40.30;;;1.90;99.90;;;;;;5034806;28;20025;-74
2021/03/19 00:34:57;;;;;;;85.63;40.97;;;1.90;99.90;;;;;;5052717;28;20108;-75
2021/03/19 00:37:23;;;;;;;77.80;38.83;;;1.90;99.90;;;;;;5034728;28;20163;-75
2021/03/19 00:39:49;;;;;;;72.40;37.93;;;1.90;99.90;;;;;;5034475;28;20029;-75
2021/03/19 00:42:15;;;;;;;72.73;38.07;;;1.80;99.90;;;;;;5056575;28;20051;-75
2021/03/19 00:44:41;;;;;;;74.77;36.77;;;1.80;99.90;;;;;;5038587;28;20047;-75
2021/03/19 00:47:08;;;;;;;74.23;39.53;;;1.80;99.90;;;;;;5038562;28;20032;-75
2021/03/19 00:49:34;;;;;;;89.67;45.43;;;1.80;99.90;;;;;;5038218;28;20071;-74
2021/03/19 00:52:00;;;;;;;84.37;43.27;;;1.80;99.90;;;;;;5038474;28;20017;-75
2021/03/19 00:54:26;;;;;;;80.60;39.60;;;1.80;99.90;;;;;;5056420;28;20469;-74
2021/03/19 00:56:52;;;;;;;77.43;40.70;;;1.80;99.90;;;;;;5038345;28;20032;-75
2021/03/19 00:59:18;;;;;;;78.13;42.90;;;1.80;99.90;;;;;;5038257;28;20515;-75
2021/03/19 01:01:44;;;;;;;77.73;41.03;;;1.90;99.90;;;;;;5055921;28;20079;-75
2021/03/19 01:04:10;;;;;;;78.73;42.00;;;1.90;99.90;;;;;;5056104;28;20076;-75
2021/03/19 01:06:36;;;;;;;64.53;33.80;;;1.90;99.90;;;;;;5056155;28;20051;-75
2021/03/19 01:09:03;;;;;;;58.77;32.93;;;2.00;99.90;;;;;;5056064;28;20473;-75
2021/03/19 01:11:29;;;;;;;51.63;32.63;;;2.10;99.90;;;;;;5056005;28;20075;-74
2021/03/19 01:13:55;;;;;;;53.30;32.07;;;2.30;99.90;;;;;;5055982;28;20414;-74
2021/03/19 01:16:22;;;;;;;62.67;34.77;;;2.40;99.50;;;;;;5055667;28;20441;-73
2021/03/19 01:18:48;;;;;;;68.53;37.70;;;2.40;99.40;;;;;;5055923;28;20032;-74
2021/03/19 01:21:14;;;;;;;63.83;37.57;;;2.50;99.50;;;;;;5055886;28;20044;-74
2021/03/19 01:23:42;;;;;;;83.73;46.87;;;2.50;99.60;;;;;;5037831;28;20033;-74
2021/03/19 01:26:10;;;;;;;116.60;52.67;;;2.50;99.80;;;;;;5037880;28;20036;-74
2021/03/19 01:28:36;;;;;;;110.53;50.70;;;2.50;99.60;;;;;;5037586;28;20055;-74
2021/03/19 01:31:02;;;;;;;120.73;52.67;;;2.60;99.60;;;;;;5037734;28;20025;-74
2021/03/19 01:33:28;;;;;;;113.80;51.70;;;2.60;99.50;;;;;;5037766;28;20475;-75
2021/03/19 01:35:54;;;;;;;92.13;48.30;;;2.60;99.40;;;;;;5055617;28;20025;-75
2021/03/19 01:38:20;;;;;;;85.37;45.40;;;2.60;99.50;;;;;;5037671;28;20025;-76
2021/03/19 01:40:47;;;;;;;86.73;46.67;;;2.50;99.60;;;;;;5055504;28;20409;-75
2021/03/19 01:43:34;;;;;;;106.50;56.20;;;2.50;99.80;;;;;;5055443;28;20033;-75
2021/03/19 01:46:37;;;;;;;124.57;61.17;;;2.50;99.90;;;;;;5055467;28;20404;-76
2021/03/19 01:49:40;;;;;;;112.50;56.00;;;2.40;99.90;;;;;;5055279;28;20091;-76
2021/03/19 01:52:43;;;;;;;104.17;53.13;;;2.40;99.90;;;;;;5037259;28;20025;-76
2021/03/19 01:55:46;;;;;;;99.70;49.47;;;2.40;99.90;;;;;;5037293;28;20031;-75
2021/03/19 01:58:50;;;;;;;98.83;49.27;;;2.40;99.90;;;;;;5036950;28;20025;-76
2021/03/19 02:01:53;;;;;;;103.13;50.23;;;2.40;99.90;;;;;;5037212;28;20028;-75
2021/03/19 02:04:56;;;;;;;101.47;52.80;;;2.40;99.90;;;;;;5055195;28;20037;-76
2021/03/19 02:07:59;;;;;;;56.63;31.47;;;2.50;99.90;;;;;;5037108;28;20025;-76
2021/03/19 02:11:02;;;;;;;66.33;34.27;;;2.60;99.30;;;;;;5036984;28;20018;-75
2021/03/19 02:14:05;;;;;;;59.40;32.50;;;2.60;99.10;;;;;;5054910;28;20020;-75
2021/03/19 02:17:08;;;;;;;71.40;38.97;;;2.50;99.50;;;;;;5036885;28;20104;-75
2021/03/19 02:20:11;;;;;;;68.70;37.67;;;2.50;99.70;;;;;;5036859;28;20096;-75
2021/03/19 02:23:15;;;;;;;60.37;34.17;;;2.50;99.80;;;;;;5036702;28;20025;-74
2021/03/19 02:26:18;;;;;;;65.73;36.33;;;2.50;99.80;;;;;;5036667;28;20568;-75
2021/03/19 02:29:20;;;;;;;67.30;36.33;;;2.60;99.80;;;;;;5054078;28;20072;-75
2021/03/19 02:32:01;;;;;;;74.43;38.93;;;2.60;99.90;;;;;;5054476;28;20027;-73
2021/03/19 02:34:36;;;;;;;74.50;40.63;;;2.60;99.80;;;;;;5054544;28;20033;-73
2021/03/19 02:37:02;;;;;;;70.87;40.50;;;2.60;99.80;;;;;;5036570;28;20030;-74
2021/03/19 02:39:27;;;;;;;74.07;39.80;;;2.50;99.90;;;;;;5036428;28;20021;-74
2021/03/19 02:41:53;;;;;;;70.70;40.03;;;2.60;99.90;;;;;;5054313;28;20025;-74
2021/03/19 02:44:19;;;;;;;61.03;36.70;;;2.60;99.90;;;;;;5036265;28;20489;-73
2021/03/19 02:46:45;;;;;;;74.40;40.90;;;2.60;99.80;;;;;;5054343;28;20036;-73
2021/03/19 02:49:11;;;;;;;72.60;39.57;;;2.70;99.70;;;;;;5054175;28;20424;-73
2021/03/19 02:51:38;;;;;;;70.20;39.07;;;2.70;99.60;;;;;;5036242;28;20028;-74
2021/03/19 02:54:04;;;;;;;78.17;44.37;;;2.70;99.50;;;;;;5036161;28;20051;-75
2021/03/19 02:56:29;;;;;;;82.83;44.40;;;2.70;99.50;;;;;;5054104;28;20021;-74
2021/03/19 02:58:55;;;;;;;79.93;45.70;;;2.70;99.70;;;;;;5036126;28;20402;-75
2021/03/19 03:01:21;;;;;;;65.43;37.80;;;2.80;99.50;;;;;;5053945;28;20065;-74
2021/03/19 03:03:47;;;;;;;71.83;38.90;;;2.70;99.40;;;;;;5035471;28;20037;-74
2021/03/19 03:06:13;;;;;;;73.10;41.07;;;2.80;99.00;;;;;;5035720;28;20033;-75
2021/03/19 03:08:39;;;;;;;70.77;39.87;;;2.80;99.30;;;;;;5035586;28;20033;-75
2021/03/19 03:11:05;;;;;;;76.70;42.17;;;2.80;99.00;;;;;;5035871;28;20060;-74
2021/03/19 03:13:31;;;;;;;78.65;44.35;;;2.80;98.90;;;;;;5035801;28;20516;-75
2021/03/19 03:15:57;;;;;;;76.77;43.03;;;2.80;98.90;;;;;;5054058;28;20052;-76
2021/03/19 03:18:23;;;;;;;71.57;40.77;;;2.80;98.90;;;;;;5053647;28;20056;-75
2021/03/19 03:20:56;;;;;;;73.97;42.33;;;2.90;98.60;;;;;;5035708;28;20431;-74
2021/03/19 03:23:24;;;;;;;76.47;42.67;;;2.90;98.50;;;;;;5035702;28;20480;-76
2021/03/19 03:25:50;;;;;;;76.53;43.20;;;2.90;98.40;;;;;;5035642;28;20037;-76
2021/03/19 03:28:17;;;;;;;79.60;45.90;;;3.00;98.30;;;;;;5035247;28;20053;-76
2021/03/19 03:30:46;;;;;;;74.33;44.83;;;2.90;98.20;;;;;;5035547;28;20538;-74
2021/03/19 03:33:13;;;;;;;73.03;41.55;;;3.00;98.10;;;;;;5053130;28;20028;-74
2021/03/19 03:35:40;;;;;;;78.73;44.83;;;3.00;98.10;;;;;;5053466;28;20028;-75
2021/03/19 03:38:12;;;;;;;78.87;44.83;;;3.00;98.00;;;;;;5053307;28;20040;-75
2021/03/19 03:40:46;;;;;;;72.70;42.70;;;3.00;98.10;;;;;;5035407;28;20028;-75
2021/03/19 03:43:14;;;;;;;74.70;44.43;;;3.00;98.40;;;;;;5053274;28;20115;-75
2021/03/19 03:45:41;;;;;;;77.90;45.40;;;2.90;98.50;;;;;;5053194;28;20120;-74
2021/03/19 03:48:08;;;;;;;82.10;45.97;;;2.80;98.80;;;;;;5035267;28;20021;-76
2021/03/19 03:50:34;;;;;;;83.70;46.10;;;2.80;99.00;;;;;;5035204;28;20025;-75
2021/03/19 03:53:00;;;;;;;83.47;47.77;;;2.80;99.20;;;;;;5035237;28;20025;-74
2021/03/19 03:55:26;;;;;;;87.60;47.87;;;2.70;99.30;;;;;;5035116;28;20056;-75
2021/03/19 03:57:52;;;;;;;92.55;49.00;;;2.60;99.40;;;;;;5053043;28;20029;-74
2021/03/19 04:00:23;;;;;;;91.22;48.35;;;2.60;99.30;;;;;;5052848;28;20419;-73
2021/03/19 04:02:49;;;;;;;88.55;49.17;;;2.60;99.40;;;;;;5053358;28;20035;-73
2021/03/19 04:05:22;;;;;;;92.67;48.27;;;2.60;99.40;;;;;;5034892;28;20120;-74
2021/03/19 04:07:48;;;;;;;86.90;48.70;;;2.60;99.50;;;;;;5053016;28;20370;-74
2021/03/19 04:10:14;;;;;;;92.00;48.87;;;2.60;99.40;;;;;;5052902;28;20091;-74
2021/03/19 04:12:40;;;;;;;91.13;47.80;;;2.60;99.40;;;;;;5035028;28;20021;-73
2021/03/19 04:15:07;;;;;;;83.27;45.93;;;2.60;99.50;;;;;;5035512;28;20072;-72
2021/03/19 04:17:34;;;;;;;85.47;45.87;;;2.60;99.40;;;;;;5039227;28;20074;-75
2021/03/19 04:20:00;;;;;;;84.13;46.27;;;2.50;99.40;;;;;;5039103;28;20029;-73
2021/03/19 04:22:27;;;;;;;83.90;46.83;;;2.50;99.50;;;;;;5033683;28;20032;-72
2021/03/19 04:24:55;;;;;;;94.10;47.63;;;2.50;99.50;;;;;;5029326;28;20033;-72
2021/03/19 04:27:23;;;;;;;81.20;45.43;;;2.50;99.70;;;;;;5046341;28;20018;-73
2021/03/19 04:29:49;;;;;;;86.23;46.80;;;2.50;99.60;;;;;;5034459;28;20049;-74
2021/03/19 04:32:16;;;;;;;93.13;47.97;;;2.50;99.50;;;;;;5028766;28;20033;-74
2021/03/19 04:34:42;;;;;;;84.37;46.27;;;2.40;99.50;;;;;;5045323;28;20044;-73
2021/03/19 04:37:09;;;;;;;81.87;45.53;;;2.40;99.50;;;;;;5033101;28;20377;-73
2021/03/19 04:39:39;;;;;;;91.03;44.63;;;2.40;99.50;;;;;;5038748;28;20483;-73
2021/03/19 04:42:07;;;;;;;81.63;43.90;;;2.40;99.50;;;;;;5038673;28;20021;-73
2021/03/19 04:44:37;;;;;;;81.80;44.23;;;2.40;99.50;;;;;;5038594;28;20029;-72
2021/03/19 04:47:05;;;;;;;83.50;44.43;;;2.40;99.50;;;;;;5038619;28;20032;-73
2021/03/19 04:49:32;;;;;;;79.97;45.00;;;2.40;99.40;;;;;;5055567;28;20055;-74
2021/03/19 04:51:58;;;;;;;90.17;45.90;;;2.50;99.60;;;;;;5037383;28;20031;-72
2021/03/19 04:54:25;;;;;;;75.57;43.13;;;2.50;99.40;;;;;;5044670;28;20040;-73
2021/03/19 04:56:50;;;;;;;82.73;45.67;;;2.50;99.30;;;;;;5029219;28;20029;-74
2021/03/19 04:59:17;;;;;;;81.10;44.43;;;2.50;99.30;;;;;;5050320;28;20029;-73
2021/03/19 05:01:51;;;;;;;87.70;46.90;;;2.40;99.40;;;;;;5038287;28;20491;-74
2021/03/19 05:04:18;;;;;;;85.43;47.93;;;2.50;99.40;;;;;;5038248;28;20449;-73
2021/03/19 05:06:44;;;;;;;87.37;48.87;;;2.50;99.60;;;;;;5056264;28;20033;-74
2021/03/19 05:09:11;;;;;;;93.23;52.47;;;2.50;99.50;;;;;;5037906;28;20025;-73
2021/03/19 05:11:37;;;;;;;93.70;51.37;;;2.50;99.50;;;;;;5038221;28;20056;-72
2021/03/19 05:14:03;;;;;;;89.57;52.70;;;2.50;99.40;;;;;;5056285;28;20445;-73
2021/03/19 05:16:29;;;;;;;89.40;51.17;;;2.50;99.50;;;;;;5056028;28;20052;-73
2021/03/19 05:18:55;;;;;;;91.77;49.83;;;2.50;99.30;;;;;;5055935;28;20033;-73
2021/03/19 05:21:21;;;;;;;88.67;47.40;;;2.50;99.30;;;;;;5037967;28;20036;-74
2021/03/19 05:23:47;;;;;;;81.13;44.03;;;2.50;99.20;;;;;;5055479;28;20051;-72
2021/03/19 05:26:13;;;;;;;77.50;43.30;;;2.60;99.20;;;;;;5055590;28;20450;-74
2021/03/19 05:28:39;;;;;;;77.70;44.20;;;2.50;99.00;;;;;;5037572;28;20049;-74
2021/03/19 05:31:05;;;;;;;80.13;47.40;;;2.50;99.00;;;;;;5055430;28;20033;-73
2021/03/19 05:33:53;;;;;;;84.23;47.57;;;2.50;99.00;;;;;;5037437;28;20029;-73
2021/03/19 05:36:25;;;;;;;85.83;48.93;;;2.50;99.10;;;;;;5055917;28;20426;-73
2021/03/19 05:38:51;;;;;;;97.20;52.03;;;2.50;99.00;;;;;;5055611;28;20029;-73
2021/03/19 05:41:20;;;;;;;93.17;52.13;;;2.50;98.90;;;;;;5055512;28;20052;-73
2021/03/19 05:43:52;;;;;;;104.67;53.40;;;2.50;98.90;;;;;;5055445;28;20052;-73
2021/03/19 05:46:28;;;;;;;77.50;44.60;;;2.50;98.90;;;;;;5037515;28;20028;-72
2021/03/19 05:48:58;;;;;;;79.27;42.53;;;2.50;98.70;;;;;;5055176;28;20086;-75
2021/03/19 05:51:23;;;;;;;81.00;44.80;;;2.60;98.60;;;;;;5055334;28;20029;-74
2021/03/19 05:53:54;;;;;;;77.27;44.53;;;2.60;98.80;;;;;;5037291;28;20044;-73
2021/03/19 05:56:27;;;;;;;83.83;46.70;;;2.60;98.60;;;;;;5036996;28;20032;-75
2021/03/19 05:58:53;;;;;;;87.97;53.77;;;2.70;98.80;;;;;;5037334;28;20122;-74
2021/03/19 06:01:19;;;;;;;90.77;52.37;;;2.60;98.60;;;;;;5037161;28;20489;-74
2021/03/19 06:03:46;;;;;;;83.33;46.40;;;2.70;98.90;;;;;;5037131;28;20595;-73
2021/03/19 06:07:00;;;;;;;83.43;46.80;;;2.70;98.80;;;;;;5036578;28;20037;-74
2021/03/19 06:09:43;;;;;;;85.93;47.13;;;2.70;98.70;;;;;;5034209;28;20056;-75
2021/03/19 06:12:16;;;;;;;84.30;46.80;;;2.60;98.90;;;;;;5017194;28;20061;-74
2021/03/19 06:14:52;;;;;;;78.70;43.07;;;2.60;98.80;;;;;;5043756;28;20036;-72
2021/03/19 06:17:26;;;;;;;71.57;41.80;;;2.60;98.70;;;;;;5054846;28;20032;-74
2021/03/19 06:20:01;;;;;;;70.50;41.23;;;2.60;98.70;;;;;;5036784;28;20059;-72
2021/03/19 06:22:45;;;;;;;72.57;41.13;;;2.70;98.70;;;;;;5054760;28;20465;-74
2021/03/19 06:25:25;;;;;;;70.43;42.03;;;2.70;98.50;;;;;;5053299;28;20044;-74
2021/03/19 06:28:04;;;;;;;71.83;41.23;;;2.80;98.50;;;;;;5054901;28;20132;-74
2021/03/19 06:30:42;;;;;;;90.73;50.67;;;2.80;98.00;;;;;;5053129;28;20025;-73
2021/03/19 06:33:14;;;;;;;98.43;52.33;;;2.90;98.20;;;;;;5053289;28;20115;-74
2021/03/19 06:35:46;;;;;;;87.60;48.90;;;3.00;98.40;;;;;;5054258;28;20098;-74
2021/03/19 06:38:34;;;;;;;88.77;48.87;;;3.10;98.20;;;;;;5053663;28;20032;-73
2021/03/19 06:41:21;;;;;;;81.83;45.67;;;3.20;98.30;;;;;;5053012;28;20025;-74
2021/03/19 06:43:47;;;;;;;83.43;44.33;;;3.20;98.20;;;;;;5054253;28;20461;-74
2021/03/19 06:46:25;;;;;;;80.45;41.55;;;3.30;97.90;;;;;;5052538;28;20029;-73
2021/03/19 06:52:27;;;;;;;68.32;37.92;;;3.60;97.60;;;;;;5047711;28;20083;-73
2021/03/19 06:54:59;;;;;;;68.85;41.00;;;3.80;96.70;;;;;;5052731;28;20040;-70
2021/03/19 06:57:27;;;;;;;74.13;40.58;;;3.80;96.70;;;;;;5049446;28;20024;-73
2021/03/19 06:59:59;;;;;;;57.30;34.08;;;3.90;97.90;;;;;;5051604;28;20057;-71
2021/03/19 07:03:01;;;;;;;63.33;36.83;;;3.90;97.10;;;;;;5053365;28;20107;-73
2021/03/19 07:05:49;;;;;;;62.88;35.15;;;3.90;97.10;;;;;;5035859;28;20037;-73
2021/03/19 07:08:32;;;;;;;56.70;34.60;;;4.00;96.80;;;;;;5052577;28;20025;-72
2021/03/19 07:11:08;;;;;;;49.75;29.45;;;4.00;96.20;;;;;;5052593;28;20479;-74
2021/03/19 07:14:18;;;;;;;57.28;32.47;;;3.90;95.60;;;;;;5053736;28;20036;-70
2021/03/19 07:17:09;;;;;;;51.65;29.90;;;4.00;96.90;;;;;;5053666;28;20098;-72
2021/03/19 07:19:58;;;;;;;51.97;28.60;;;3.90;95.70;;;;;;5052240;28;20032;-75
2021/03/19 07:23:01;;;;;;;54.33;32.38;;;3.90;96.10;;;;;;5053336;28;20021;-74
2021/03/19 07:25:37;;;;;;;113.28;59.15;;;4.00;96.60;;;;;;5035552;28;20037;-71
2021/03/19 07:32:04;;;;;;;65.95;39.55;;;4.90;99.90;;;;;;5053145;28;20090;-73
2021/03/19 07:35:14;;;;;;;50.72;29.85;;;4.60;94.70;;;;;;5035478;28;20032;-74
2021/03/19 07:37:52;;;;;;;45.20;28.38;;;4.60;95.00;;;;;;4981258;28;20050;-75
2021/03/19 07:40:36;;;;;;;47.42;29.67;;;4.80;95.30;;;;;;5037379;28;20037;-72
2021/03/19 07:43:30;;;;;;;51.05;31.45;;;4.80;95.00;;;;;;5024239;28;20124;-73
2021/03/19 07:46:17;;;;;;;47.78;29.17;;;4.80;95.00;;;;;;5022629;28;20084;-73
2021/03/19 07:49:20;;;;;;;48.47;28.83;;;4.90;94.20;;;;;;5049763;28;20041;-75
2021/03/19 07:52:27;;;;;;;44.88;27.00;;;5.50;94.10;;;;;;5053476;28;20347;-74
2021/03/19 07:55:31;;;;;;;39.75;25.25;;;6.00;92.60;;;;;;5015211;28;20056;-73
2021/03/19 07:58:07;;;;;;;32.70;21.00;;;6.20;91.00;;;;;;5022931;28;20577;-77
2021/03/19 08:00:39;;;;;;;34.17;20.67;;;6.30;88.60;;;;;;4994456;28;20488;-74
2021/03/19 08:03:22;;;;;;;36.22;19.73;;;6.30;86.30;;;;;;5011043;28;20026;-74
2021/03/19 08:05:51;;;;;;;28.88;18.75;;;6.30;84.20;;;;;;5010830;28;20038;-73
2021/03/19 08:08:20;;;;;;;24.73;17.02;;;6.20;84.60;;;;;;4994302;28;20068;-76
2021/03/19 08:11:04;;;;;;;29.17;19.17;;;6.50;82.90;;;;;;5010892;28;20030;-75
2021/03/19 08:13:44;;;;;;;25.80;17.55;;;6.60;82.90;;;;;;5010766;28;20044;-74
2021/03/19 08:16:38;;;;;;;33.25;19.50;;;6.70;81.80;;;;;;5010662;28;20434;-75
2021/03/19 08:19:26;;;;;;;31.90;19.88;;;6.50;81.70;;;;;;4994159;28;20512;-73
2021/03/19 08:22:15;;;;;;;33.47;20.45;;;6.30;81.30;;;;;;4993910;28;20029;-73
2021/03/19 08:25:13;;;;;;;38.40;22.05;;;6.00;82.90;;;;;;4994136;28;20371;-74
2021/03/19 08:27:57;;;;;;;38.33;23.40;;;6.00;81.80;;;;;;4976832;28;20078;-77
2021/03/19 08:30:37;;;;;;;46.90;27.25;;;6.00;84.10;;;;;;5007288;28;20066;-76
2021/03/19 08:33:42;;;;;;;35.40;21.92;;;6.00;84.70;;;;;;5023029;28;20463;-74
2021/03/19 08:36:30;;;;;;;33.55;20.90;;;6.00;87.90;;;;;;5016586;28;20521;-76
2021/03/19 08:39:20;;;;;;;34.85;22.75;;;6.20;89.50;;;;;;5022647;28;20465;-75
2021/03/19 08:41:50;;;;;;;27.02;16.48;;;6.20;90.30;;;;;;5031723;28;20034;-75
2021/03/19 08:44:19;;;;;;;28.08;18.17;;;6.20;84.60;;;;;;5014593;28;20461;-74
2021/03/19 08:46:48;;;;;;;31.65;20.83;;;6.30;84.80;;;;;;5032544;28;20033;-74
2021/03/19 08:49:26;;;;;;;30.00;19.15;;;6.50;87.70;;;;;;5014749;28;20025;-76
2021/03/19 08:51:56;;;;;;;29.88;18.75;;;6.60;84.60;;;;;;5026408;28;20358;-76
2021/03/19 08:54:40;;;;;;;34.72;20.65;;;6.70;85.60;;;;;;5032182;28;20531;-75
2021/03/19 08:57:09;;;;;;;29.65;19.08;;;6.70;87.00;;;;;;5030933;28;20470;-73
2021/03/19 08:59:35;;;;;;;33.28;19.15;;;6.70;85.40;;;;;;5014729;28;20457;-75
2021/03/19 09:02:08;;;;;;;33.10;17.92;;;6.70;85.00;;;;;;5018781;28;20036;-75
2021/03/19 09:04:59;;;;;;;29.42;20.00;;;6.80;86.60;;;;;;5018337;28;20076;-73
2021/03/19 09:07:39;;;;;;;31.30;19.75;;;7.00;91.10;;;;;;5018124;28;20036;-77
2021/03/19 09:10:16;;;;;;;29.05;19.08;;;7.20;88.50;;;;;;5034754;28;20021;-75
2021/03/19 09:13:07;;;;;;;28.75;19.05;;;7.20;86.40;;;;;;5018409;28;20521;-75
2021/03/19 09:15:39;;;;;;;30.43;19.23;;;7.40;83.10;;;;;;5031449;28;20045;-74
2021/03/19 09:18:42;;;;;;;33.42;21.92;;;7.80;81.50;;;;;;5036842;28;20298;-75
2021/03/19 09:21:31;;;;;;;32.53;20.00;;;7.80;80.80;;;;;;5037909;28;20037;-73
2021/03/19 09:24:18;;;;;;;25.80;17.60;;;7.60;80.80;;;;;;5055337;28;20032;-72
2021/03/19 09:26:47;;;;;;;31.38;19.40;;;8.00;76.80;;;;;;5037837;28;20040;-74
2021/03/19 09:29:12;;;;;;;32.63;19.92;;;7.60;74.90;;;;;;5036989;28;20131;-73
2021/03/19 09:31:42;;;;;;;30.38;19.13;;;7.40;77.10;;;;;;5054860;28;20113;-73
2021/03/19 09:34:12;;;;;;;28.58;19.83;;;7.90;73.10;;;;;;5037125;28;20120;-76
2021/03/19 09:37:03;;;;;;;28.55;17.65;;;8.70;75.40;;;;;;5037552;28;20461;-75
2021/03/19 09:39:52;;;;;;;25.73;17.75;;;8.70;68.40;;;;;;5037446;28;20033;-75
2021/03/19 09:42:18;;;;;;;50.05;30.42;;;;;;;;;;5037432;28;20029;-75
2021/03/19 09:44:51;;;;;;;43.67;27.88;;;9.30;66.40;;;;;;5054930;28;20366;-74
2021/03/19 09:47:18;;;;;;;21.25;14.82;;;;;;;;;;5037294;28;20033;-73
2021/03/19 09:49:44;;;;;;;17.90;11.43;;;10.70;99.90;;;;;;5055217;28;20021;-75
2021/03/19 09:52:18;;;;;;;24.00;17.98;;;12.40;99.90;;;;;;5054828;28;20432;-70
2021/03/19 09:54:45;;;;;;;28.85;17.63;;;12.50;62.50;;;;;;5055113;28;20025;-74
2021/03/19 09:57:24;;;;;;;29.70;18.33;;;11.00;62.10;;;;;;5054918;28;20029;-74
2021/03/19 09:59:54;;;;;;;27.30;18.42;;;10.40;62.50;;;;;;5037060;28;20029;-69
2021/03/19 10:02:31;;;;;;;26.38;17.92;;;9.90;67.60;;;;;;5054275;28;20029;-73
2021/03/19 10:05:13;;;;;;;27.60;18.73;;;9.40;65.70;;;;;;5054889;28;20120;-76
2021/03/19 10:07:55;;;;;;;29.35;18.50;;;9.50;71.50;;;;;;5036691;28;20083;-76
2021/03/19 10:10:47;;;;;;;26.55;17.05;;;9.70;72.90;;;;;;5036871;28;20021;-72
2021/03/19 10:13:23;;;;;;;;;;;10.00;67.60;;;;;;5032993;28;20040;-71
2021/03/19 10:15:53;;;;;;;28.38;18.05;;;10.00;72.80;;;;;;5036835;28;19916;-74
2021/03/19 10:18:31;;;;;;;28.70;16.92;;;10.10;65.90;;;;;;5035813;28;20035;-71
2021/03/19 10:21:00;;;;;;;29.63;17.90;;;;;;;;;;5033445;28;20477;-73
2021/03/19 10:23:31;;;;;;;26.30;17.88;;;9.20;65.20;;;;;;5034650;28;20096;-73
2021/03/19 10:26:18;;;;;;;40.70;27.67;;;9.10;66.70;;;;;;5034543;28;20461;-73
2021/03/19 10:28:50;;;;;;;26.38;18.17;;;9.60;67.10;;;;;;5034035;28;20854;-72
2021/03/19 10:31:22;;;;;;;21.30;15.00;;;10.60;63.30;;;;;;5034561;28;20030;-74
2021/03/19 10:33:48;;;;;;;22.60;15.93;;;10.90;59.40;;;;;;5016898;28;20128;-74
2021/03/19 10:36:18;;;;;;;22.48;16.38;;;11.40;60.20;;;;;;5034783;28;20501;-73
2021/03/19 10:39:15;;;;;;;22.90;16.73;;;12.40;59.80;;;;;;5034453;28;20044;-74
2021/03/19 10:41:59;;;;;;;25.15;18.42;;;12.50;55.80;;;;;;5030696;28;20116;-73
2021/03/19 10:44:30;;;;;;;22.05;15.93;;;12.90;60.00;;;;;;5033991;28;20533;-73
2021/03/19 10:47:22;;;;;;;23.05;16.67;;;13.30;55.80;;;;;;5034392;28;20021;-73
2021/03/19 10:49:57;;;;;;;23.77;17.30;;;14.00;51.80;;;;;;5017685;28;20038;-73
2021/03/19 10:52:31;;;;;;;21.35;15.73;;;14.80;51.40;;;;;;5034228;28;20028;-69
2021/03/19 10:55:13;;;;;;;27.80;20.17;;;16.40;53.30;;;;;;5034145;28;20033;-73
2021/03/19 10:57:40;;;;;;;21.77;15.10;;;15.40;47.70;;;;;;5034152;28;20033;-72
2021/03/19 11:00:25;;;;;;;20.48;16.10;;;;;;;;;;5016126;28;20080;-73
2021/03/19 11:02:56;;;;;;;21.02;15.13;;;12.10;53.50;;;;;;5016318;28;20025;-72
2021/03/19 11:05:22;;;;;;;24.17;16.67;;;12.20;55.00;;;;;;5033953;28;20037;-72
2021/03/19 11:07:48;;;;;;;21.42;14.65;;;12.10;56.50;;;;;;5034278;28;20350;-73
2021/03/19 11:10:32;;;;;;;19.80;14.73;;;14.60;50.00;;;;;;5033966;28;20025;-72
2021/03/19 11:13:21;;;;;;;18.80;14.55;;;17.00;51.50;;;;;;5033775;28;20018;-72
2021/03/19 11:15:52;;;;;;;19.45;14.80;;;17.20;47.50;;;;;;5016134;28;20030;-72
2021/03/19 11:18:33;;;;;;;22.10;16.38;;;17.60;41.70;;;;;;5033850;28;20058;-73
2021/03/19 11:21:07;;;;;;;24.55;17.55;;;18.70;40.90;;;;;;5016018;28;20130;-73
2021/03/19 11:23:37;;;;;;;23.98;16.77;;;15.20;44.30;;;;;;5033259;28;20549;-74
2021/03/19 11:26:26;;;;;;;17.23;13.55;;;14.90;46.70;;;;;;5033455;28;20037;-72
2021/03/19 11:29:18;;;;;;;23.77;14.88;;;17.60;43.60;;;;;;5028792;28;20137;-72
2021/03/19 11:31:55;;;;;;;18.00;13.52;;;;;;;;;;5005397;28;20496;-72
2021/03/19 11:34:33;;;;;;;18.70;14.07;;;19.30;35.00;;;;;;5009526;28;20731;-73
2021/03/19 11:37:06;;;;;;;18.85;13.95;;;17.40;39.90;;;;;;5024550;28;20026;-72
2021/03/19 11:39:57;;;;;;;19.52;13.90;;;15.10;42.40;;;;;;5012062;28;20032;-72
2021/03/19 11:42:50;;;;;;;19.98;14.75;;;14.80;44.60;;;;;;5012146;28;20076;-73
2021/03/19 11:45:22;;;;;;;25.75;18.95;;;14.50;44.20;;;;;;5013599;28;20034;-74
2021/03/19 11:48:26;;;;;;;20.38;15.32;;;16.70;43.00;;;;;;5012121;28;20057;-73
2021/03/19 11:50:56;;;;;;;23.75;19.20;;;;;;;;;;5013233;28;20026;-69
2021/03/19 11:53:25;;;;;;;15.80;11.60;;;;;;;;;;5011825;28;20025;-72
2021/03/19 11:55:53;;;;;;;17.70;12.65;;;;;;;;;;5012648;28;20068;-73
2021/03/19 11:58:23;;;;;;;19.38;12.57;;;18.70;35.00;;;;;;5011726;28;20022;-73
2021/03/19 12:00:49;;;;;;;16.48;11.90;;;19.30;38.00;;;;;;5013103;28;20026;-73
2021/03/19 12:03:38;;;;;;;17.88;11.73;;;20.30;34.50;;;;;;5011753;28;20481;-74
2021/03/19 12:06:06;;;;;;;15.77;12.85;;;20.60;33.50;;;;;;5030573;28;20065;-72
2021/03/19 12:08:34;;;;;;;14.70;11.50;;;15.10;39.40;;;;;;5024496;28;20026;-73
2021/03/19 12:11:00;;;;;;;21.83;15.38;;;14.50;40.60;;;;;;5012960;28;20060;-71
2021/03/19 12:13:26;;;;;;;22.50;14.25;;;13.00;43.00;;;;;;5031457;28;20030;-72
2021/03/19 12:15:52;;;;;;;15.18;10.38;;;12.20;46.80;;;;;;5032362;28;20040;-71
2021/03/19 12:18:21;;;;;;;16.38;10.88;;;11.80;47.40;;;;;;5032643;28;20031;-72
2021/03/19 12:20:48;;;;;;;23.02;15.13;;;11.20;47.00;;;;;;5031315;28;20385;-72
2021/03/19 12:23:14;;;;;;;22.98;14.38;;;10.90;50.30;;;;;;5047659;28;20032;-74
2021/03/19 12:25:41;;;;;;;21.60;13.60;;;10.70;51.30;;;;;;5032658;28;20037;-73
2021/03/19 12:28:10;;;;;;;22.58;14.93;;;10.60;52.90;;;;;;5048333;28;20812;-75
2021/03/19 12:30:37;;;;;;;20.33;14.20;;;11.30;51.90;;;;;;5047511;28;20081;-70
2021/03/19 12:33:03;;;;;;;34.10;22.02;;;10.70;54.20;;;;;;5020778;28;20053;-73
2021/03/19 12:35:30;;;;;;;35.58;21.17;;;10.50;52.70;;;;;;5011448;28;20465;-70
2021/03/19 12:37:57;;;;;;;24.65;17.27;;;10.30;53.10;;;;;;5015000;28;20069;-71
2021/03/19 12:40:26;;;;;;;27.95;19.95;;;9.90;56.10;;;;;;5015533;28;20030;-71
2021/03/19 12:42:53;;;;;;;18.70;13.13;;;10.10;57.50;;;;;;5016834;28;20441;-71
2021/03/19 12:45:22;;;;;;;20.23;15.85;;;10.60;56.50;;;;;;5016707;28;20037;-73
2021/03/19 12:47:48;;;;;;;21.48;15.68;;;10.90;56.30;;;;;;5015301;28;20084;-72
2021/03/19 12:50:14;;;;;;;38.72;26.48;;;11.00;58.90;;;;;;5016923;28;20037;-73
2021/03/19 12:52:40;;;;;;;30.00;21.75;;;11.00;58.00;;;;;;5016707;28;20085;-70
2021/03/19 12:55:07;;;;;;;23.52;16.17;;;10.90;58.20;;;;;;5016411;28;20088;-72
2021/03/19 12:57:33;;;;;;;23.35;16.52;;;11.00;61.00;;;;;;5016137;28;20034;-71
2021/03/19 12:59:59;;;;;;;19.20;13.95;;;10.70;58.80;;;;;;5016452;28;20092;-69
2021/03/19 13:02:25;;;;;;;48.10;34.42;;;10.70;60.40;;;;;;5016395;28;20030;-73
2021/03/19 13:04:51;;;;;;;36.53;27.65;;;10.60;59.20;;;;;;5031082;28;20084;-72
2021/03/19 13:07:17;;;;;;;43.60;28.30;;;10.50;59.00;;;;;;5028399;28;20033;-73
2021/03/19 13:09:42;;;;;;;27.98;20.98;;;10.30;60.80;;;;;;5034488;28;20030;-74
2021/03/19 13:12:09;;;;;;;18.92;14.68;;;10.20;61.30;;;;;;5035936;28;20033;-72
2021/03/19 13:14:35;;;;;;;37.60;26.45;;;10.10;60.20;;;;;;5034215;28;20033;-71
2021/03/19 13:17:02;;;;;;;31.05;23.70;;;9.90;59.90;;;;;;5034191;28;20359;-71
2021/03/19 13:19:28;;;;;;;22.90;16.25;;;9.70;63.40;;;;;;5035966;28;20462;-72
2021/03/19 13:21:55;;;;;;;22.83;16.52;;;9.40;61.50;;;;;;5035650;28;20100;-72